Vivian, South Dakota
Current Conditions -  °F | °C
As of 8:53 PM on Wednesday 26 Nov 2014 (Local Time) from KPIR Reporting Station
Overcast Overcast  
Wind Chill:   Ceiling: 3000
Heat Index: 15°   Visibility: 10mi
Dew Point: 10°   Wind: 9mph
Humidity: 80%   Direction: 60°ENE
Pressure: 30.41"   Gusts: NA
Location:  43.93°N, 100.29°W
Report Text: KPIR 270253Z AUTO 06008KT 10SM OVC030 M09/M12 A3041 RMK AO2 SLP329 60000 T10941122 51007
Loading
Personal Weather Stations






























Interactive Weather Map New forecast layout! Learn more

10-Day Weather Forecast

Advertisements
Track Severe Weather on mobile